sensor_id;sensor_type;location;lat;lon;timestamp;pressure;altitude;pressure_sealevel;temperature;humidity
65897;BME280;52677;50.898;10.854;2023-06-22T00:01:05;98831.97;;;17.55;100.00
65897;BME280;52677;50.898;10.854;2023-06-22T00:03:06;98816.81;;;17.52;100.00
65897;BME280;52677;50.898;10.854;2023-06-22T00:05:06;98811.63;;;17.54;100.00
65897;BME280;52677;50.898;10.854;2023-06-22T00:07:07;98813.22;;;17.52;100.00
65897;BME280;52677;50.898;10.854;2023-06-22T00:09:08;98805.25;;;17.50;100.00
65897;BME280;52677;50.898;10.854;2023-06-22T00:11:10;98808.09;;;17.47;100.00
65897;BME280;52677;50.898;10.854;2023-06-22T00:13:11;98802.44;;;17.50;100.00
65897;BME280;52677;50.898;10.854;2023-06-22T00:15:12;98808.00;;;17.54;100.00
65897;BME280;52677;50.898;10.854;2023-06-22T00:17:12;98814.44;;;17.51;100.00
65897;BME280;52677;50.898;10.854;2023-06-22T00:19:12;98816.09;;;17.45;100.00
65897;BME280;52677;50.898;10.854;2023-06-22T00:21:13;98818.59;;;17.35;100.00
65897;BME280;52677;50.898;10.854;2023-06-22T00:23:13;98829.03;;;17.28;100.00
65897;BME280;52677;50.898;10.854;2023-06-22T00:25:16;98829.09;;;17.24;100.00
65897;BME280;52677;50.898;10.854;2023-06-22T00:27:16;98814.38;;;17.17;100.00
65897;BME280;52677;50.898;10.854;2023-06-22T00:29:16;98814.75;;;17.22;100.00
65897;BME280;52677;50.898;10.854;2023-06-22T00:31:17;98799.97;;;17.22;100.00
65897;BME280;52677;50.898;10.854;2023-06-22T00:33:17;98804.28;;;17.30;100.00
65897;BME280;52677;50.898;10.854;2023-06-22T00:35:17;98794.28;;;17.29;100.00
65897;BME280;52677;50.898;10.854;2023-06-22T00:37:18;98796.34;;;17.25;100.00
65897;BME280;52677;50.898;10.854;2023-06-22T00:39:18;98788.06;;;17.14;100.00
65897;BME280;52677;50.898;10.854;2023-06-22T00:41:18;98797.78;;;16.99;100.00
65897;BME280;52677;50.898;10.854;2023-06-22T00:43:19;98800.63;;;16.92;100.00
65897;BME280;52677;50.898;10.854;2023-06-22T00:45:20;98805.13;;;16.78;100.00
65897;BME280;52677;50.898;10.854;2023-06-22T00:47:21;98801.22;;;16.72;100.00
65897;BME280;52677;50.898;10.854;2023-06-22T00:49:21;98813.19;;;16.73;100.00
65897;BME280;52677;50.898;10.854;2023-06-22T00:51:22;98807.19;;;16.71;100.00
65897;BME280;52677;50.898;10.854;2023-06-22T00:53:24;98805.19;;;16.68;100.00
65897;BME280;52677;50.898;10.854;2023-06-22T00:55:25;98811.19;;;16.66;100.00
65897;BME280;52677;50.898;10.854;2023-06-22T00:57:26;98797.22;;;16.66;100.00
65897;BME280;52677;50.898;10.854;2023-06-22T00:59:28;98802.03;;;16.66;100.00
65897;BME280;52677;50.898;10.854;2023-06-22T01:01:28;98797.66;;;16.65;100.00
65897;BME280;52677;50.898;10.854;2023-06-22T01:03:29;98793.28;;;16.64;100.00
65897;BME280;52677;50.898;10.854;2023-06-22T01:05:31;98794.44;;;16.63;100.00
65897;BME280;52677;50.898;10.854;2023-06-22T01:07:35;98799.28;;;16.58;100.00
65897;BME280;52677;50.898;10.854;2023-06-22T01:09:48;98793.31;;;16.53;100.00
65897;BME280;52677;50.898;10.854;2023-06-22T01:11:54;98799.34;;;16.51;100.00
65897;BME280;52677;50.898;10.854;2023-06-22T01:13:58;98799.34;;;16.51;100.00
65897;BME280;52677;50.898;10.854;2023-06-22T01:16:07;98802.53;;;16.50;100.00
65897;BME280;52677;50.898;10.854;2023-06-22T01:18:08;98796.59;;;16.44;100.00
65897;BME280;52677;50.898;10.854;2023-06-22T01:20:10;98788.25;;;16.41;100.00
65897;BME280;52677;50.898;10.854;2023-06-22T01:22:15;98787.44;;;16.40;100.00
65897;BME280;52677;50.898;10.854;2023-06-22T01:24:24;98787.88;;;16.39;100.00
65897;BME280;52677;50.898;10.854;2023-06-22T01:26:37;98785.91;;;16.28;100.00
65897;BME280;52677;50.898;10.854;2023-06-22T01:28:45;98796.38;;;16.17;100.00
65897;BME280;52677;50.898;10.854;2023-06-22T01:30:46;98783.25;;;16.11;100.00
65897;BME280;52677;50.898;10.854;2023-06-22T01:32:49;98782.47;;;16.07;100.00
65897;BME280;52677;50.898;10.854;2023-06-22T01:34:50;98770.88;;;16.12;100.00
65897;BME280;52677;50.898;10.854;2023-06-22T01:36:52;98763.69;;;16.11;100.00
65897;BME280;52677;50.898;10.854;2023-06-22T01:38:53;98753.38;;;16.08;100.00
65897;BME280;52677;50.898;10.854;2023-06-22T01:40:55;98746.94;;;16.11;100.00
65897;BME280;52677;50.898;10.854;2023-06-22T01:42:57;98754.53;;;16.14;100.00
65897;BME280;52677;50.898;10.854;2023-06-22T01:44:58;98760.91;;;16.14;100.00
65897;BME280;52677;50.898;10.854;2023-06-22T01:46:59;98754.94;;;16.09;100.00
65897;BME280;52677;50.898;10.854;2023-06-22T01:49:01;98756.16;;;16.08;100.00
65897;BME280;52677;50.898;10.854;2023-06-22T01:51:02;98752.16;;;16.09;100.00
65897;BME280;52677;50.898;10.854;2023-06-22T01:53:03;98736.97;;;16.13;100.00
65897;BME280;52677;50.898;10.854;2023-06-22T01:55:03;98719.81;;;16.15;100.00
65897;BME280;52677;50.898;10.854;2023-06-22T01:57:05;98715.00;;;16.22;100.00
65897;BME280;52677;50.898;10.854;2023-06-22T01:59:25;98711.78;;;16.24;100.00
65897;BME280;52677;50.898;10.854;2023-06-22T02:01:34;98730.16;;;16.18;100.00
65897;BME280;52677;50.898;10.854;2023-06-22T02:03:44;98739.75;;;16.13;100.00
65897;BME280;52677;50.898;10.854;2023-06-22T02:05:50;98719.41;;;16.13;100.00
65897;BME280;52677;50.898;10.854;2023-06-22T02:08:08;98711.06;;;16.13;100.00
65897;BME280;52677;50.898;10.854;2023-06-22T02:10:10;98685.94;;;16.13;100.00
65897;BME280;52677;50.898;10.854;2023-06-22T02:12:17;98709.13;;;16.06;100.00
65897;BME280;52677;50.898;10.854;2023-06-22T02:14:18;98735.50;;;15.98;100.00
65897;BME280;52677;50.898;10.854;2023-06-22T02:16:19;98745.88;;;15.94;100.00
65897;BME280;52677;50.898;10.854;2023-06-22T02:18:19;98754.69;;;15.89;100.00
65897;BME280;52677;50.898;10.854;2023-06-22T02:20:20;98765.84;;;15.89;100.00
65897;BME280;52677;50.898;10.854;2023-06-22T02:22:21;98769.41;;;15.89;100.00
65897;BME280;52677;50.898;10.854;2023-06-22T02:24:21;98763.44;;;15.87;100.00
65897;BME280;52677;50.898;10.854;2023-06-22T02:26:24;98775.00;;;15.89;100.00
65897;BME280;52677;50.898;10.854;2023-06-22T02:28:25;98767.81;;;15.92;100.00
65897;BME280;52677;50.898;10.854;2023-06-22T02:30:25;98764.97;;;15.95;100.00
65897;BME280;52677;50.898;10.854;2023-06-22T02:32:26;98762.97;;;15.99;100.00
65897;BME280;52677;50.898;10.854;2023-06-22T02:34:26;98763.41;;;15.98;100.00
65897;BME280;52677;50.898;10.854;2023-06-22T02:36:26;98778.53;;;16.00;100.00
65897;BME280;52677;50.898;10.854;2023-06-22T02:38:27;98782.94;;;15.98;100.00
65897;BME280;52677;50.898;10.854;2023-06-22T02:40:28;98790.88;;;15.99;100.00
65897;BME280;52677;50.898;10.854;2023-06-22T02:42:32;98790.88;;;15.99;100.00
65897;BME280;52677;50.898;10.854;2023-06-22T02:44:32;98814.78;;;15.97;100.00
65897;BME280;52677;50.898;10.854;2023-06-22T02:46:32;98824.41;;;15.92;100.00
65897;BME280;52677;50.898;10.854;2023-06-22T02:48:33;98814.06;;;15.89;100.00
65897;BME280;52677;50.898;10.854;2023-06-22T02:50:34;98821.22;;;15.87;100.00
65897;BME280;52677;50.898;10.854;2023-06-22T02:52:34;98818.09;;;15.81;100.00
65897;BME280;52677;50.898;10.854;2023-06-22T02:54:34;98818.88;;;15.82;100.00
65897;BME280;52677;50.898;10.854;2023-06-22T02:56:35;98828.44;;;15.84;100.00
65897;BME280;52677;50.898;10.854;2023-06-22T02:58:36;98835.22;;;15.83;100.00
65897;BME280;52677;50.898;10.854;2023-06-22T03:00:38;98853.56;;;15.81;100.00
65897;BME280;52677;50.898;10.854;2023-06-22T03:02:39;98867.09;;;15.82;100.00
65897;BME280;52677;50.898;10.854;2023-06-22T03:04:39;98881.44;;;15.84;100.00
65897;BME280;52677;50.898;10.854;2023-06-22T03:06:40;98891.41;;;15.85;100.00
65897;BME280;52677;50.898;10.854;2023-06-22T03:08:40;98898.16;;;15.88;100.00
65897;BME280;52677;50.898;10.854;2023-06-22T03:10:41;98909.28;;;15.95;100.00
65897;BME280;52677;50.898;10.854;2023-06-22T03:12:42;98908.88;;;16.00;100.00
65897;BME280;52677;50.898;10.854;2023-06-22T03:14:43;98902.50;;;16.03;100.00
65897;BME280;52677;50.898;10.854;2023-06-22T03:16:43;98905.66;;;16.09;100.00
65897;BME280;52677;50.898;10.854;2023-06-22T03:18:44;98900.84;;;16.13;100.00
65897;BME280;52677;50.898;10.854;2023-06-22T03:20:44;98894.06;;;16.17;100.00
65897;BME280;52677;50.898;10.854;2023-06-22T03:22:45;98892.88;;;16.22;100.00
65897;BME280;52677;50.898;10.854;2023-06-22T03:24:45;98889.25;;;16.25;100.00
65897;BME280;52677;50.898;10.854;2023-06-22T03:26:45;98875.66;;;16.31;100.00
65897;BME280;52677;50.898;10.854;2023-06-22T03:28:46;98880.44;;;16.34;100.00
65897;BME280;52677;50.898;10.854;2023-06-22T03:30:47;98882.00;;;16.35;100.00
65897;BME280;52677;50.898;10.854;2023-06-22T03:32:47;98884.81;;;16.35;100.00
65897;BME280;52677;50.898;10.854;2023-06-22T03:34:48;98881.22;;;16.34;100.00
65897;BME280;52677;50.898;10.854;2023-06-22T03:36:48;98884.41;;;16.36;100.00
65897;BME280;52677;50.898;10.854;2023-06-22T03:38:49;98869.22;;;16.41;100.00
65897;BME280;52677;50.898;10.854;2023-06-22T03:40:50;98871.19;;;16.44;100.00
65897;BME280;52677;50.898;10.854;2023-06-22T03:42:50;98857.22;;;16.44;100.00
65897;BME280;52677;50.898;10.854;2023-06-22T03:44:50;98842.06;;;16.45;100.00
65897;BME280;52677;50.898;10.854;2023-06-22T03:46:51;98832.09;;;16.47;100.00
65897;BME280;52677;50.898;10.854;2023-06-22T03:48:51;98816.13;;;16.48;100.00
65897;BME280;52677;50.898;10.854;2023-06-22T03:50:51;98803.72;;;16.52;100.00
65897;BME280;52677;50.898;10.854;2023-06-22T03:52:52;98780.94;;;16.54;100.00
65897;BME280;52677;50.898;10.854;2023-06-22T03:54:52;98777.38;;;16.53;100.00
65897;BME280;52677;50.898;10.854;2023-06-22T03:56:53;98774.19;;;16.55;100.00
65897;BME280;52677;50.898;10.854;2023-06-22T03:58:53;98755.38;;;16.59;100.00
65897;BME280;52677;50.898;10.854;2023-06-22T04:00:53;98733.41;;;16.61;100.00
65897;BME280;52677;50.898;10.854;2023-06-22T04:02:53;98726.25;;;16.60;100.00
65897;BME280;52677;50.898;10.854;2023-06-22T04:04:54;98725.50;;;16.56;100.00
65897;BME280;52677;50.898;10.854;2023-06-22T04:06:54;98716.72;;;16.54;100.00
65897;BME280;52677;50.898;10.854;2023-06-22T04:08:54;98715.13;;;16.53;100.00
65897;BME280;52677;50.898;10.854;2023-06-22T04:10:55;98723.09;;;16.54;100.00
65897;BME280;52677;50.898;10.854;2023-06-22T04:12:55;98727.88;;;16.54;100.00
65897;BME280;52677;50.898;10.854;2023-06-22T04:14:56;98739.88;;;16.51;100.00
65897;BME280;52677;50.898;10.854;2023-06-22T04:16:57;98743.06;;;16.53;100.00
65897;BME280;52677;50.898;10.854;2023-06-22T04:18:58;98754.63;;;16.55;100.00
65897;BME280;52677;50.898;10.854;2023-06-22T04:20:58;98759.00;;;16.56;100.00
65897;BME280;52677;50.898;10.854;2023-06-22T04:22:58;98765.34;;;16.64;100.00
65897;BME280;52677;50.898;10.854;2023-06-22T04:24:59;98766.50;;;16.66;100.00
65897;BME280;52677;50.898;10.854;2023-06-22T04:26:59;98770.06;;;16.74;100.00
65897;BME280;52677;50.898;10.854;2023-06-22T04:29:05;98757.63;;;16.82;100.00
65897;BME280;52677;50.898;10.854;2023-06-22T04:31:06;98754.34;;;16.87;100.00
65897;BME280;52677;50.898;10.854;2023-06-22T04:33:06;98745.97;;;16.91;100.00
65897;BME280;52677;50.898;10.854;2023-06-22T04:35:07;98740.69;;;16.96;100.00
65897;BME280;52677;50.898;10.854;2023-06-22T04:37:07;98725.53;;;16.97;100.00
65897;BME280;52677;50.898;10.854;2023-06-22T04:39:09;98724.69;;;17.00;100.00
65897;BME280;52677;50.898;10.854;2023-06-22T04:41:09;98724.66;;;17.04;100.00
65897;BME280;52677;50.898;10.854;2023-06-22T04:43:14;98720.63;;;17.08;100.00
65897;BME280;52677;50.898;10.854;2023-06-22T04:45:14;98716.66;;;17.06;100.00
65897;BME280;52677;50.898;10.854;2023-06-22T04:47:14;98719.44;;;17.06;100.00
65897;BME280;52677;50.898;10.854;2023-06-22T04:49:15;98720.19;;;17.10;100.00
65897;BME280;52677;50.898;10.854;2023-06-22T04:51:15;98726.56;;;17.14;100.00
65897;BME280;52677;50.898;10.854;2023-06-22T04:53:15;98726.84;;;17.23;100.00
65897;BME280;52677;50.898;10.854;2023-06-22T04:55:16;98732.38;;;17.27;100.00
65897;BME280;52677;50.898;10.854;2023-06-22T04:57:19;98732.66;;;17.39;100.00
65897;BME280;52677;50.898;10.854;2023-06-22T04:59:20;98735.38;;;17.47;100.00
65897;BME280;52677;50.898;10.854;2023-06-22T05:01:20;98739.66;;;17.55;100.00
65897;BME280;52677;50.898;10.854;2023-06-22T05:03:22;98749.06;;;17.68;100.00
65897;BME280;52677;50.898;10.854;2023-06-22T05:05:22;98748.88;;;17.86;100.00
65897;BME280;52677;50.898;10.854;2023-06-22T05:07:22;98745.34;;;17.82;100.00
65897;BME280;52677;50.898;10.854;2023-06-22T05:09:25;98737.59;;;17.93;100.00
65897;BME280;52677;50.898;10.854;2023-06-22T05:11:27;98747.38;;;18.08;100.00
65897;BME280;52677;50.898;10.854;2023-06-22T05:13:27;98745.59;;;18.21;100.00
65897;BME280;52677;50.898;10.854;2023-06-22T05:15:28;98743.41;;;18.33;100.00
65897;BME280;52677;50.898;10.854;2023-06-22T05:17:30;98749.22;;;18.45;100.00
65897;BME280;52677;50.898;10.854;2023-06-22T05:19:30;98741.47;;;18.53;100.00
65897;BME280;52677;50.898;10.854;2023-06-22T05:21:33;98751.41;;;18.58;100.00
65897;BME280;52677;50.898;10.854;2023-06-22T05:23:33;98736.88;;;18.66;100.00
65897;BME280;52677;50.898;10.854;2023-06-22T05:25:34;98740.47;;;18.67;100.00
65897;BME280;52677;50.898;10.854;2023-06-22T05:27:34;98740.69;;;18.79;100.00
65897;BME280;52677;50.898;10.854;2023-06-22T05:29:39;98728.47;;;18.90;100.00
65897;BME280;52677;50.898;10.854;2023-06-22T05:31:40;98743.28;;;18.90;100.00
65897;BME280;52677;50.898;10.854;2023-06-22T05:33:41;98728.16;;;18.84;100.00
65897;BME280;52677;50.898;10.854;2023-06-22T05:35:41;98729.88;;;18.78;100.00
65897;BME280;52677;50.898;10.854;2023-06-22T05:37:42;98732.44;;;18.69;100.00
65897;BME280;52677;50.898;10.854;2023-06-22T05:39:43;98742.41;;;18.70;100.00
65897;BME280;52677;50.898;10.854;2023-06-22T05:41:45;98753.22;;;18.71;100.00
65897;BME280;52677;50.898;10.854;2023-06-22T05:43:45;98755.28;;;18.67;100.00
65897;BME280;52677;50.898;10.854;2023-06-22T05:45:46;98757.28;;;18.67;100.00
65897;BME280;52677;50.898;10.854;2023-06-22T05:47:46;98752.13;;;18.65;100.00
65897;BME280;52677;50.898;10.854;2023-06-22T05:49:46;98756.06;;;18.68;100.00
65897;BME280;52677;50.898;10.854;2023-06-22T05:51:46;98748.03;;;18.70;100.00
65897;BME280;52677;50.898;10.854;2023-06-22T05:53:47;98759.66;;;18.68;100.00
65897;BME280;52677;50.898;10.854;2023-06-22T05:55:49;98761.91;;;18.77;100.00
65897;BME280;52677;50.898;10.854;2023-06-22T05:57:50;98759.44;;;18.83;100.00
65897;BME280;52677;50.898;10.854;2023-06-22T05:59:50;98754.97;;;18.85;100.00
65897;BME280;52677;50.898;10.854;2023-06-22T06:01:51;98753.34;;;18.88;100.00
65897;BME280;52677;50.898;10.854;2023-06-22T06:03:52;98758.81;;;18.95;100.00
65897;BME280;52677;50.898;10.854;2023-06-22T06:05:53;98757.53;;;18.99;100.00
65897;BME280;52677;50.898;10.854;2023-06-22T06:07:53;98760.56;;;19.08;100.00
65897;BME280;52677;50.898;10.854;2023-06-22T06:09:53;98761.97;;;19.20;100.00
65897;BME280;52677;50.898;10.854;2023-06-22T06:11:54;98759.41;;;19.29;100.00
65897;BME280;52677;50.898;10.854;2023-06-22T06:13:54;98755.63;;;19.36;100.00
65897;BME280;52677;50.898;10.854;2023-06-22T06:15:54;98755.16;;;19.41;100.00
65897;BME280;52677;50.898;10.854;2023-06-22T06:17:58;98755.00;;;19.48;100.00
65897;BME280;52677;50.898;10.854;2023-06-22T06:19:59;98752.44;;;19.57;100.00
65897;BME280;52677;50.898;10.854;2023-06-22T06:21:59;98754.31;;;19.64;100.00
65897;BME280;52677;50.898;10.854;2023-06-22T06:24:00;98760.44;;;19.79;100.00
65897;BME280;52677;50.898;10.854;2023-06-22T06:26:00;98756.59;;;19.89;100.00
65897;BME280;52677;50.898;10.854;2023-06-22T06:28:01;98756.72;;;20.02;100.00
65897;BME280;52677;50.898;10.854;2023-06-22T06:30:01;98764.47;;;20.14;100.00
65897;BME280;52677;50.898;10.854;2023-06-22T06:32:03;98765.97;;;20.18;100.00
65897;BME280;52677;50.898;10.854;2023-06-22T06:34:04;98757.91;;;20.20;100.00
65897;BME280;52677;50.898;10.854;2023-06-22T06:36:04;98749.69;;;20.30;100.00
65897;BME280;52677;50.898;10.854;2023-06-22T06:38:04;98755.13;;;20.37;100.00
65897;BME280;52677;50.898;10.854;2023-06-22T06:40:09;98742.38;;;20.32;100.00
65897;BME280;52677;50.898;10.854;2023-06-22T06:42:10;98744.84;;;20.30;100.00
65897;BME280;52677;50.898;10.854;2023-06-22T06:44:11;98731.06;;;20.36;100.00
65897;BME280;52677;50.898;10.854;2023-06-22T06:46:11;98738.13;;;20.44;100.00
65897;BME280;52677;50.898;10.854;2023-06-22T06:48:12;98736.53;;;20.59;100.00
65897;BME280;52677;50.898;10.854;2023-06-22T06:50:12;98741.63;;;20.81;100.00
65897;BME280;52677;50.898;10.854;2023-06-22T06:52:13;98733.19;;;20.97;100.00
65897;BME280;52677;50.898;10.854;2023-06-22T06:54:13;98733.78;;;21.04;100.00
65897;BME280;52677;50.898;10.854;2023-06-22T06:56:13;98729.22;;;21.11;100.00
65897;BME280;52677;50.898;10.854;2023-06-22T06:58:14;98720.84;;;21.07;100.00
65897;BME280;52677;50.898;10.854;2023-06-22T07:00:15;98730.41;;;21.10;100.00
65897;BME280;52677;50.898;10.854;2023-06-22T07:02:16;98727.31;;;21.20;100.00
65897;BME280;52677;50.898;10.854;2023-06-22T07:04:16;98728.13;;;21.21;100.00
65897;BME280;52677;50.898;10.854;2023-06-22T07:06:16;98723.13;;;21.28;100.00
65897;BME280;52677;50.898;10.854;2023-06-22T07:08:17;98720.75;;;21.27;100.00
65897;BME280;52677;50.898;10.854;2023-06-22T07:10:17;98722.38;;;21.24;100.00
65897;BME280;52677;50.898;10.854;2023-06-22T07:12:17;98722.81;;;21.23;100.00
65897;BME280;52677;50.898;10.854;2023-06-22T07:14:18;98711.47;;;21.26;100.00
65897;BME280;52677;50.898;10.854;2023-06-22T07:16:18;98711.56;;;21.39;100.00
65897;BME280;52677;50.898;10.854;2023-06-22T07:18:19;98713.19;;;21.53;100.00
65897;BME280;52677;50.898;10.854;2023-06-22T07:20:19;98705.66;;;21.63;100.00
65897;BME280;52677;50.898;10.854;2023-06-22T07:22:19;98709.63;;;21.78;100.00
65897;BME280;52677;50.898;10.854;2023-06-22T07:24:24;98700.50;;;21.86;100.00
65897;BME280;52677;50.898;10.854;2023-06-22T07:26:25;98704.56;;;21.98;100.00
65897;BME280;52677;50.898;10.854;2023-06-22T07:28:25;98701.91;;;22.07;100.00
65897;BME280;52677;50.898;10.854;2023-06-22T07:30:25;98697.16;;;22.17;100.00
65897;BME280;52677;50.898;10.854;2023-06-22T07:32:26;98697.28;;;22.26;100.00
65897;BME280;52677;50.898;10.854;2023-06-22T07:34:28;98698.19;;;22.36;100.00
65897;BME280;52677;50.898;10.854;2023-06-22T07:36:29;98692.97;;;22.47;100.00
65897;BME280;52677;50.898;10.854;2023-06-22T07:38:30;98694.63;;;22.57;100.00
65897;BME280;52677;50.898;10.854;2023-06-22T07:40:30;98707.25;;;22.65;100.00
65897;BME280;52677;50.898;10.854;2023-06-22T07:42:30;98694.50;;;22.74;100.00
65897;BME280;52677;50.898;10.854;2023-06-22T07:44:33;98698.31;;;22.80;100.00
65897;BME280;52677;50.898;10.854;2023-06-22T07:46:33;98700.50;;;22.76;100.00
65897;BME280;52677;50.898;10.854;2023-06-22T07:48:36;98701.69;;;22.75;100.00
65897;BME280;52677;50.898;10.854;2023-06-22T07:50:37;98695.03;;;22.81;100.00
65897;BME280;52677;50.898;10.854;2023-06-22T07:52:37;98689.50;;;22.90;100.00
65897;BME280;52677;50.898;10.854;2023-06-22T07:54:38;98689.59;;;22.99;100.00
65897;BME280;52677;50.898;10.854;2023-06-22T07:56:38;98687.50;;;23.13;100.00
65897;BME280;52677;50.898;10.854;2023-06-22T07:58:39;98681.28;;;23.18;100.00
65897;BME280;52677;50.898;10.854;2023-06-22T08:00:39;98685.75;;;23.28;100.00
65897;BME280;52677;50.898;10.854;2023-06-22T08:02:40;98680.75;;;23.32;100.00
65897;BME280;52677;50.898;10.854;2023-06-22T08:04:41;98676.56;;;23.37;100.00
65897;BME280;52677;50.898;10.854;2023-06-22T08:06:41;98677.56;;;23.43;100.00
65897;BME280;52677;50.898;10.854;2023-06-22T08:08:42;98678.66;;;23.45;100.00
65897;BME280;52677;50.898;10.854;2023-06-22T08:10:43;98678.34;;;23.43;100.00
65897;BME280;52677;50.898;10.854;2023-06-22T08:12:43;98682.00;;;23.53;100.00
65897;BME280;52677;50.898;10.854;2023-06-22T08:14:43;98681.22;;;23.52;100.00
65897;BME280;52677;50.898;10.854;2023-06-22T08:16:46;98673.03;;;23.67;100.00
65897;BME280;52677;50.898;10.854;2023-06-22T08:18:47;98671.03;;;23.77;100.00
65897;BME280;52677;50.898;10.854;2023-06-22T08:20:47;98668.06;;;23.80;100.00
65897;BME280;52677;50.898;10.854;2023-06-22T08:22:47;98663.88;;;23.85;100.00
65897;BME280;52677;50.898;10.854;2023-06-22T08:24:47;98657.94;;;23.92;100.00
65897;BME280;52677;50.898;10.854;2023-06-22T08:26:51;98655.44;;;23.94;100.00
65897;BME280;52677;50.898;10.854;2023-06-22T08:28:51;98656.06;;;23.98;100.00
65897;BME280;52677;50.898;10.854;2023-06-22T08:30:52;98655.66;;;24.09;100.00
65897;BME280;52677;50.898;10.854;2023-06-22T08:32:53;98656.59;;;24.15;100.00
65897;BME280;52677;50.898;10.854;2023-06-22T08:34:56;98657.75;;;24.27;100.00
65897;BME280;52677;50.898;10.854;2023-06-22T08:36:56;98645.38;;;24.33;100.00
65897;BME280;52677;50.898;10.854;2023-06-22T08:38:57;98651.22;;;24.48;100.00
65897;BME280;52677;50.898;10.854;2023-06-22T08:40:57;98643.84;;;24.51;100.00
65897;BME280;52677;50.898;10.854;2023-06-22T08:42:58;98645.91;;;24.59;100.00
65897;BME280;52677;50.898;10.854;2023-06-22T08:44:58;98647.66;;;24.66;100.00
65897;BME280;52677;50.898;10.854;2023-06-22T08:46:58;98643.25;;;24.74;100.00
65897;BME280;52677;50.898;10.854;2023-06-22T08:48:59;98648.59;;;24.81;100.00
65897;BME280;52677;50.898;10.854;2023-06-22T08:50:59;98639.47;;;24.86;100.00
65897;BME280;52677;50.898;10.854;2023-06-22T08:53:00;98646.41;;;24.94;100.00
65897;BME280;52677;50.898;10.854;2023-06-22T08:55:00;98639.16;;;24.93;100.00
65897;BME280;52677;50.898;10.854;2023-06-22T08:57:02;98635.56;;;25.02;100.00
65897;BME280;52677;50.898;10.854;2023-06-22T08:59:02;98632.44;;;25.09;100.00
65897;BME280;52677;50.898;10.854;2023-06-22T09:01:02;98630.84;;;25.17;100.00
65897;BME280;52677;50.898;10.854;2023-06-22T09:03:04;98634.78;;;25.20;97.91
65897;BME280;52677;50.898;10.854;2023-06-22T09:05:05;98631.16;;;25.19;99.00
65897;BME280;52677;50.898;10.854;2023-06-22T09:07:05;98635.72;;;25.26;100.00
65897;BME280;52677;50.898;10.854;2023-06-22T09:09:06;98632.09;;;25.35;98.76
65897;BME280;52677;50.898;10.854;2023-06-22T09:11:06;98630.97;;;25.41;97.57
65897;BME280;52677;50.898;10.854;2023-06-22T09:13:07;98622.13;;;25.48;97.47
65897;BME280;52677;50.898;10.854;2023-06-22T09:15:07;98619.16;;;25.52;97.48
65897;BME280;52677;50.898;10.854;2023-06-22T09:17:08;98622.13;;;25.58;97.03
65897;BME280;52677;50.898;10.854;2023-06-22T09:19:08;98617.84;;;25.62;96.18
65897;BME280;52677;50.898;10.854;2023-06-22T09:21:09;98622.25;;;25.63;95.61
65897;BME280;52677;50.898;10.854;2023-06-22T09:23:09;98611.56;;;25.67;95.30
65897;BME280;52677;50.898;10.854;2023-06-22T09:25:09;98609.69;;;25.73;95.41
65897;BME280;52677;50.898;10.854;2023-06-22T09:27:10;98609.50;;;25.77;93.47
65897;BME280;52677;50.898;10.854;2023-06-22T09:29:10;98604.28;;;25.85;92.06
65897;BME280;52677;50.898;10.854;2023-06-22T09:31:11;98590.94;;;25.76;92.30
65897;BME280;52677;50.898;10.854;2023-06-22T09:33:11;98598.75;;;25.81;93.14
65897;BME280;52677;50.898;10.854;2023-06-22T09:35:11;98608.94;;;25.97;92.23
65897;BME280;52677;50.898;10.854;2023-06-22T09:37:13;98599.47;;;26.00;91.45
65897;BME280;52677;50.898;10.854;2023-06-22T09:39:14;98595.81;;;26.09;92.44
65897;BME280;52677;50.898;10.854;2023-06-22T09:41:14;98589.97;;;26.12;89.69
65897;BME280;52677;50.898;10.854;2023-06-22T09:43:14;98587.25;;;26.18;90.18
65897;BME280;52677;50.898;10.854;2023-06-22T09:45:15;98578.56;;;26.21;89.64
65897;BME280;52677;50.898;10.854;2023-06-22T09:47:15;98581.88;;;26.20;89.20
65897;BME280;52677;50.898;10.854;2023-06-22T09:49:15;98580.75;;;26.26;90.49
65897;BME280;52677;50.898;10.854;2023-06-22T09:51:16;98578.81;;;26.32;89.40
65897;BME280;52677;50.898;10.854;2023-06-22T09:53:16;98580.19;;;26.37;89.15
65897;BME280;52677;50.898;10.854;2023-06-22T09:55:16;98583.13;;;26.52;88.47
65897;BME280;52677;50.898;10.854;2023-06-22T09:57:17;98575.50;;;26.58;87.44
65897;BME280;52677;50.898;10.854;2023-06-22T09:59:17;98563.56;;;26.54;88.64
65897;BME280;52677;50.898;10.854;2023-06-22T10:01:18;98574.91;;;26.54;88.10
65897;BME280;52677;50.898;10.854;2023-06-22T10:03:18;98563.84;;;26.32;88.07
65897;BME280;52677;50.898;10.854;2023-06-22T10:05:18;98555.66;;;26.34;88.06
65897;BME280;52677;50.898;10.854;2023-06-22T10:07:19;98554.66;;;26.37;89.89
65897;BME280;52677;50.898;10.854;2023-06-22T10:09:19;98550.84;;;26.49;87.23
65897;BME280;52677;50.898;10.854;2023-06-22T10:11:20;98552.44;;;26.65;88.87
65897;BME280;52677;50.898;10.854;2023-06-22T10:13:20;98557.84;;;26.78;86.88
65897;BME280;52677;50.898;10.854;2023-06-22T10:15:20;98555.25;;;27.04;88.07
65897;BME280;52677;50.898;10.854;2023-06-22T10:17:21;98554.94;;;27.02;86.09
65897;BME280;52677;50.898;10.854;2023-06-22T10:19:21;98552.81;;;27.11;86.87
65897;BME280;52677;50.898;10.854;2023-06-22T10:21:21;98564.97;;;27.12;86.32
65897;BME280;52677;50.898;10.854;2023-06-22T10:23:22;98553.19;;;27.04;85.29
65897;BME280;52677;50.898;10.854;2023-06-22T10:25:22;98565.34;;;27.05;85.62